createdAt,value
2019-03-31T00:00:02.171Z,11.80
2019-03-31T00:02:30.439Z,11.80
2019-03-31T00:04:58.660Z,11.60
2019-03-31T00:07:26.904Z,11.60
2019-03-31T00:09:55.376Z,11.70
2019-03-31T00:12:23.612Z,11.70
2019-03-31T00:14:51.948Z,11.70
2019-03-31T00:17:20.213Z,11.70
2019-03-31T00:19:48.456Z,11.80
2019-03-31T00:22:16.691Z,11.80
2019-03-31T00:24:44.924Z,11.70
2019-03-31T00:27:13.516Z,11.60
2019-03-31T00:29:41.744Z,11.60
2019-03-31T00:32:10.164Z,11.60
2019-03-31T00:34:38.389Z,11.70
2019-03-31T00:37:07.770Z,11.70
2019-03-31T00:39:36.542Z,11.70
2019-03-31T00:42:04.780Z,11.70
2019-03-31T00:44:33.005Z,11.60
2019-03-31T00:47:02.281Z,11.50
2019-03-31T00:49:30.878Z,11.60
2019-03-31T00:51:59.117Z,11.60
2019-03-31T00:54:27.957Z,11.50
2019-03-31T00:56:56.362Z,11.40
2019-03-31T00:59:24.592Z,11.30
2019-03-31T01:01:57.195Z,11.40
2019-03-31T01:04:26.542Z,11.20
2019-03-31T01:06:54.772Z,11.00
2019-03-31T01:09:26.572Z,11.20
2019-03-31T01:11:55.040Z,11.10
2019-03-31T01:14:23.720Z,11.10
2019-03-31T01:16:52.113Z,11.20
2019-03-31T01:19:21.625Z,11.20
2019-03-31T01:21:50.132Z,11.10
2019-03-31T01:24:18.817Z,11.20
2019-03-31T01:26:47.044Z,11.20
2019-03-31T01:29:15.448Z,11.20
2019-03-31T01:31:50.305Z,11.20
2019-03-31T01:34:13.716Z,11.30
2019-03-31T01:36:41.951Z,11.30
2019-03-31T01:39:10.196Z,11.20
2019-03-31T01:41:38.444Z,10.90
2019-03-31T01:44:06.757Z,10.40
2019-03-31T01:46:35.462Z,10.40
2019-03-31T01:49:03.721Z,10.20
2019-03-31T01:51:31.948Z,10.40
2019-03-31T01:54:00.224Z,10.60
2019-03-31T01:56:28.453Z,10.60
2019-03-31T01:58:56.691Z,10.60
2019-03-31T02:01:24.927Z,10.50
2019-03-31T02:03:53.156Z,10.50
2019-03-31T02:06:21.387Z,10.40
2019-03-31T02:08:49.692Z,10.40
2019-03-31T02:11:17.924Z,10.40
2019-03-31T02:13:46.169Z,10.30
2019-03-31T02:16:14.399Z,10.30
2019-03-31T02:18:42.660Z,10.50
2019-03-31T02:21:10.908Z,10.40
2019-03-31T02:23:39.148Z,10.30
2019-03-31T02:26:07.375Z,10.30
2019-03-31T02:28:35.611Z,10.40
2019-03-31T02:31:03.836Z,10.40
2019-03-31T02:33:32.073Z,10.30
2019-03-31T02:36:00.297Z,10.30
2019-03-31T02:38:28.535Z,10.30
2019-03-31T02:40:56.756Z,10.40
2019-03-31T02:43:25.306Z,10.40
2019-03-31T02:45:53.534Z,10.20
2019-03-31T02:48:21.772Z,10.30
2019-03-31T02:50:50.984Z,10.40
2019-03-31T02:53:20.156Z,10.40
2019-03-31T02:55:48.550Z,10.40
2019-03-31T02:58:16.961Z,10.50
2019-03-31T03:00:45.425Z,10.40
2019-03-31T03:03:15.302Z,10.40
2019-03-31T03:05:43.523Z,10.50
2019-03-31T03:08:11.744Z,10.50
2019-03-31T03:10:40.310Z,10.40
2019-03-31T03:13:09.902Z,10.20
2019-03-31T03:15:50.280Z,10.20
2019-03-31T03:18:18.501Z,10.10
2019-03-31T03:20:46.738Z,10.20
2019-03-31T03:23:14.962Z,10.20
2019-03-31T03:25:55.666Z,10.10
2019-03-31T03:28:13.145Z,10.10
2019-03-31T03:30:41.445Z,10.20
2019-03-31T03:33:15.611Z,10.10
2019-03-31T03:35:39.802Z,10.00
2019-03-31T03:38:08.025Z,10.00
2019-03-31T03:40:36.261Z,10.00
2019-03-31T03:43:04.489Z,10.10
2019-03-31T03:45:33.753Z,10.00
2019-03-31T03:48:01.995Z,9.90
2019-03-31T03:50:30.220Z,9.80
2019-03-31T03:52:58.442Z,9.80
2019-03-31T03:55:26.678Z,9.50
2019-03-31T03:57:54.893Z,9.40
2019-03-31T04:00:23.130Z,9.30
2019-03-31T04:02:51.349Z,9.10
2019-03-31T04:05:19.582Z,9.20
2019-03-31T04:07:48.069Z,9.20
2019-03-31T04:10:45.258Z,9.30
2019-03-31T04:13:13.522Z,9.30
2019-03-31T04:15:41.752Z,9.10
2019-03-31T04:18:09.981Z,9.10
2019-03-31T04:20:39.482Z,9.10
2019-03-31T04:23:08.116Z,8.90
2019-03-31T04:25:36.338Z,8.90
2019-03-31T04:28:04.649Z,8.70
2019-03-31T04:30:32.930Z,8.80
2019-03-31T04:33:01.140Z,8.90
2019-03-31T04:35:29.382Z,8.90
2019-03-31T04:37:57.596Z,8.90
2019-03-31T04:40:25.824Z,8.80
2019-03-31T04:42:54.044Z,8.70
2019-03-31T04:45:22.285Z,8.80
2019-03-31T04:47:50.509Z,8.80
2019-03-31T04:50:18.739Z,8.70
2019-03-31T04:52:46.964Z,8.70
2019-03-31T04:55:15.192Z,8.80
2019-03-31T04:57:43.411Z,8.70
2019-03-31T05:00:11.646Z,8.70
2019-03-31T05:02:39.863Z,8.70
2019-03-31T05:05:08.088Z,8.70
2019-03-31T05:07:36.315Z,8.70
2019-03-31T05:10:05.912Z,8.70
2019-03-31T05:12:34.128Z,8.60
2019-03-31T05:15:02.361Z,8.50
2019-03-31T05:17:30.580Z,8.50
2019-03-31T05:19:59.121Z,8.60
2019-03-31T05:22:27.341Z,8.50
2019-03-31T05:24:55.568Z,8.50
2019-03-31T05:27:23.784Z,8.40
2019-03-31T05:29:52.018Z,8.60
2019-03-31T05:32:20.236Z,8.50
2019-03-31T05:34:48.469Z,8.50
2019-03-31T05:37:16.697Z,8.50
2019-03-31T05:39:44.920Z,8.50
2019-03-31T05:42:13.143Z,8.50
2019-03-31T05:44:41.375Z,8.50
2019-03-31T05:47:09.598Z,8.40
2019-03-31T05:49:37.825Z,8.20
2019-03-31T05:52:06.040Z,8.40
2019-03-31T05:54:35.188Z,8.40
2019-03-31T05:57:03.574Z,8.30
2019-03-31T05:59:31.804Z,8.50
2019-03-31T06:02:00.019Z,8.40
2019-03-31T06:04:33.263Z,8.20
2019-03-31T06:06:58.192Z,8.10
2019-03-31T06:09:26.420Z,8.20
2019-03-31T06:11:54.640Z,8.40
2019-03-31T06:14:25.592Z,8.70
2019-03-31T06:16:53.901Z,8.80
2019-03-31T06:19:22.132Z,8.90
2019-03-31T06:21:50.644Z,9.00
2019-03-31T06:24:18.875Z,9.10
2019-03-31T06:26:47.393Z,9.10
2019-03-31T06:29:15.629Z,9.10
2019-03-31T06:31:43.848Z,9.70
2019-03-31T06:34:12.085Z,11.20
2019-03-31T06:36:40.373Z,12.90
2019-03-31T06:39:08.616Z,13.20
2019-03-31T06:41:37.074Z,12.40
2019-03-31T06:44:05.320Z,11.50
2019-03-31T06:46:33.541Z,11.10
2019-03-31T06:49:01.776Z,10.50
2019-03-31T06:51:29.996Z,10.20
2019-03-31T06:53:58.545Z,10.10
2019-03-31T06:56:26.780Z,10.10
2019-03-31T06:58:55.000Z,10.10
2019-03-31T07:01:23.240Z,10.20
2019-03-31T07:03:51.560Z,10.30
2019-03-31T07:06:19.800Z,10.30
2019-03-31T07:08:48.026Z,10.00
2019-03-31T07:11:16.262Z,10.00
2019-03-31T07:13:44.756Z,10.30
2019-03-31T07:16:12.989Z,10.50
2019-03-31T07:18:41.225Z,10.30
2019-03-31T07:21:09.460Z,10.00
2019-03-31T07:23:37.684Z,10.00
2019-03-31T07:26:05.916Z,10.30
2019-03-31T07:28:34.220Z,10.40
2019-03-31T07:31:02.460Z,10.60
2019-03-31T07:33:30.684Z,10.60
2019-03-31T07:35:58.915Z,10.60
2019-03-31T07:38:38.371Z,10.60
2019-03-31T07:41:11.675Z,10.80
2019-03-31T07:43:27.532Z,11.00
2019-03-31T07:45:56.107Z,11.10
2019-03-31T07:48:24.470Z,11.40
2019-03-31T07:50:52.709Z,11.60
2019-03-31T07:53:20.927Z,11.80
2019-03-31T07:55:49.164Z,12.00
2019-03-31T07:58:17.389Z,11.80
2019-03-31T08:00:45.623Z,12.20
2019-03-31T08:03:13.851Z,12.40
2019-03-31T08:05:42.080Z,12.20
2019-03-31T08:08:10.308Z,12.30
2019-03-31T08:10:38.540Z,12.50
2019-03-31T08:13:06.768Z,12.80
2019-03-31T08:15:35.006Z,13.10
2019-03-31T08:18:03.295Z,13.20
2019-03-31T08:20:31.797Z,13.40
2019-03-31T08:23:00.025Z,13.20
2019-03-31T08:25:28.258Z,13.50
2019-03-31T08:27:56.483Z,14.00
2019-03-31T08:30:25.008Z,14.10
2019-03-31T08:32:53.330Z,14.30
2019-03-31T08:35:21.708Z,14.60
2019-03-31T08:37:50.276Z,14.40
2019-03-31T08:40:18.638Z,14.50
2019-03-31T08:42:47.354Z,14.50
2019-03-31T08:45:15.615Z,14.90
2019-03-31T08:47:44.024Z,14.90
2019-03-31T08:50:12.407Z,15.40
2019-03-31T08:52:40.854Z,15.60
2019-03-31T08:55:11.972Z,15.80
2019-03-31T08:57:40.328Z,15.90
2019-03-31T09:00:11.663Z,16.10
2019-03-31T09:02:40.056Z,16.40
2019-03-31T09:05:08.969Z,16.50
2019-03-31T09:07:37.223Z,16.60
2019-03-31T09:10:07.169Z,16.80
2019-03-31T09:12:35.676Z,17.30
2019-03-31T09:15:05.745Z,17.70
2019-03-31T09:17:33.984Z,17.30
2019-03-31T09:20:02.216Z,17.30
2019-03-31T09:22:30.460Z,17.40
2019-03-31T09:24:58.684Z,18.00
2019-03-31T09:27:26.926Z,18.30
2019-03-31T09:29:55.173Z,18.50
2019-03-31T09:32:23.408Z,18.70
2019-03-31T09:34:51.637Z,19.10
2019-03-31T09:37:19.888Z,19.10
2019-03-31T09:39:48.364Z,19.20
2019-03-31T09:42:16.604Z,19.30
2019-03-31T09:44:45.143Z,19.10
2019-03-31T09:47:13.451Z,19.10
2019-03-31T09:49:41.673Z,19.30
2019-03-31T09:52:10.160Z,19.80
2019-03-31T09:54:38.388Z,20.30
2019-03-31T09:57:06.620Z,20.30
2019-03-31T09:59:34.848Z,20.10
2019-03-31T10:02:03.092Z,20.10
2019-03-31T10:04:31.437Z,20.00
2019-03-31T10:06:59.926Z,20.50
2019-03-31T10:09:28.396Z,20.80
2019-03-31T10:11:56.640Z,20.20
2019-03-31T10:14:24.873Z,20.40
2019-03-31T10:16:53.175Z,20.60
2019-03-31T10:19:21.417Z,21.00
2019-03-31T10:21:49.651Z,21.30
2019-03-31T10:24:17.888Z,21.40
2019-03-31T10:26:46.115Z,21.60
2019-03-31T10:29:14.349Z,21.80
2019-03-31T10:31:42.576Z,21.80
2019-03-31T10:34:10.933Z,22.00
2019-03-31T10:36:44.857Z,21.90
2019-03-31T10:39:09.601Z,22.10
2019-03-31T10:41:37.973Z,21.90
2019-03-31T10:44:06.219Z,21.90
2019-03-31T10:46:34.441Z,22.10
2019-03-31T10:49:02.677Z,22.30
2019-03-31T10:51:30.908Z,22.00
2019-03-31T10:53:59.140Z,22.00
2019-03-31T10:56:27.455Z,21.80
2019-03-31T10:58:55.978Z,21.80
2019-03-31T11:01:24.205Z,22.10
2019-03-31T11:03:52.559Z,22.20
2019-03-31T11:06:20.952Z,22.10
2019-03-31T11:08:49.492Z,22.20
2019-03-31T11:11:17.724Z,22.10
2019-03-31T11:13:45.969Z,22.00
2019-03-31T11:16:14.200Z,22.00
2019-03-31T11:18:42.440Z,22.20
2019-03-31T11:21:30.356Z,22.20
2019-03-31T11:23:58.603Z,22.30
2019-03-31T11:26:26.836Z,22.30
2019-03-31T11:28:55.103Z,22.40
2019-03-31T11:31:23.396Z,22.30
2019-03-31T11:33:51.640Z,22.20
2019-03-31T11:36:20.192Z,22.10
2019-03-31T11:38:48.508Z,22.30
2019-03-31T11:41:16.914Z,22.50
2019-03-31T11:43:45.259Z,22.60
2019-03-31T11:46:13.568Z,22.60
2019-03-31T11:48:41.812Z,22.50
2019-03-31T11:51:10.365Z,22.40
2019-03-31T11:53:38.629Z,22.50
2019-03-31T11:56:06.852Z,22.70
2019-03-31T11:58:35.102Z,22.80
2019-03-31T12:01:03.328Z,22.60
2019-03-31T12:03:31.568Z,22.50
2019-03-31T12:05:59.803Z,22.40
2019-03-31T12:08:28.045Z,22.50
2019-03-31T12:10:56.268Z,22.40
2019-03-31T12:13:24.508Z,22.50
2019-03-31T12:15:52.740Z,22.60
2019-03-31T12:18:21.317Z,22.90
2019-03-31T12:20:49.528Z,23.00
2019-03-31T12:23:18.072Z,23.00
2019-03-31T12:25:46.304Z,22.90
2019-03-31T12:28:14.553Z,22.80
2019-03-31T12:30:42.787Z,22.80
2019-03-31T12:33:11.021Z,22.90
2019-03-31T12:35:39.259Z,23.10
2019-03-31T12:38:07.825Z,23.20
2019-03-31T12:40:36.530Z,23.20
2019-03-31T12:43:05.232Z,22.90
2019-03-31T12:45:33.448Z,22.90
2019-03-31T12:48:01.730Z,22.90
2019-03-31T12:50:30.328Z,22.70
2019-03-31T12:52:58.569Z,22.20
2019-03-31T12:55:26.788Z,22.20
2019-03-31T12:57:55.023Z,22.50
2019-03-31T13:00:23.272Z,22.40
2019-03-31T13:02:51.511Z,22.20
2019-03-31T13:05:19.748Z,22.30
2019-03-31T13:07:56.108Z,22.10
2019-03-31T13:10:17.944Z,21.80
2019-03-31T13:12:46.180Z,21.50
2019-03-31T13:15:14.440Z,21.40
2019-03-31T13:17:42.668Z,21.70
2019-03-31T13:20:30.388Z,21.90
2019-03-31T13:22:58.692Z,22.10
2019-03-31T13:25:26.940Z,22.30
2019-03-31T13:27:55.171Z,22.70
2019-03-31T13:30:23.408Z,22.80
2019-03-31T13:32:51.632Z,22.80
2019-03-31T13:35:20.201Z,22.70
2019-03-31T13:37:48.420Z,22.50
2019-03-31T13:40:16.671Z,22.60
2019-03-31T13:42:44.917Z,22.70
2019-03-31T13:45:13.150Z,22.90
2019-03-31T13:47:41.384Z,22.90
2019-03-31T13:50:09.616Z,22.90
2019-03-31T13:52:37.855Z,23.00
2019-03-31T13:55:08.826Z,23.10
2019-03-31T13:57:37.459Z,23.30
2019-03-31T14:00:07.169Z,23.30
2019-03-31T14:02:35.392Z,23.40
2019-03-31T14:05:03.797Z,23.30
2019-03-31T14:07:32.428Z,23.20
2019-03-31T14:10:00.673Z,23.20
2019-03-31T14:12:28.902Z,23.10
2019-03-31T14:14:58.664Z,22.90
2019-03-31T14:17:26.979Z,22.40
2019-03-31T14:19:55.216Z,22.10
2019-03-31T14:22:23.452Z,21.80
2019-03-31T14:24:51.692Z,21.50
2019-03-31T14:27:20.373Z,21.70
2019-03-31T14:29:48.614Z,22.00
2019-03-31T14:32:16.841Z,22.20
2019-03-31T14:34:45.113Z,22.20
2019-03-31T14:37:13.335Z,22.60
2019-03-31T14:39:41.576Z,22.60
2019-03-31T14:42:09.804Z,22.50
2019-03-31T14:44:38.048Z,22.70
2019-03-31T14:47:06.268Z,22.70
2019-03-31T14:49:34.504Z,22.60
2019-03-31T14:52:02.740Z,22.70
2019-03-31T14:54:30.977Z,22.70
2019-03-31T14:56:59.296Z,22.70
2019-03-31T14:59:27.844Z,22.70
2019-03-31T15:01:56.085Z,22.70
2019-03-31T15:04:24.317Z,22.70
2019-03-31T15:06:52.561Z,22.60
2019-03-31T15:09:20.783Z,22.60
2019-03-31T15:11:49.345Z,22.50
2019-03-31T15:14:17.568Z,22.50
2019-03-31T15:16:48.471Z,22.40
2019-03-31T15:19:15.831Z,22.30
2019-03-31T15:21:44.447Z,22.30
2019-03-31T15:24:12.781Z,22.30
2019-03-31T15:26:41.020Z,22.10
2019-03-31T15:29:09.240Z,22.00
2019-03-31T15:31:37.479Z,22.10
2019-03-31T15:34:05.972Z,21.80
2019-03-31T15:36:34.276Z,21.70
2019-03-31T15:39:09.054Z,21.70
2019-03-31T15:41:34.113Z,21.70
2019-03-31T15:44:02.500Z,21.60
2019-03-31T15:46:30.732Z,21.40
2019-03-31T15:48:58.953Z,21.20
2019-03-31T15:51:27.184Z,21.20
2019-03-31T15:53:55.416Z,21.00
2019-03-31T15:56:23.691Z,21.10
2019-03-31T15:58:51.916Z,21.10
2019-03-31T16:01:20.390Z,21.00
2019-03-31T16:03:48.608Z,20.90
2019-03-31T16:06:16.865Z,20.90
2019-03-31T16:08:45.240Z,21.00
2019-03-31T16:11:13.484Z,21.10
2019-03-31T16:13:41.754Z,20.90
2019-03-31T16:16:10.016Z,20.70
2019-03-31T16:18:38.532Z,20.60
2019-03-31T16:21:06.760Z,20.50
2019-03-31T16:23:34.980Z,20.40
2019-03-31T16:26:03.216Z,20.30
2019-03-31T16:28:31.465Z,20.40
2019-03-31T16:30:59.700Z,20.40
2019-03-31T16:33:27.920Z,20.40
2019-03-31T16:35:56.170Z,20.40
2019-03-31T16:38:25.883Z,20.60
2019-03-31T16:40:54.351Z,20.70
2019-03-31T16:43:22.572Z,20.80
2019-03-31T16:45:50.803Z,20.80
2019-03-31T16:48:19.417Z,20.80
2019-03-31T16:50:47.636Z,20.70
2019-03-31T16:53:15.942Z,20.80
2019-03-31T16:55:44.545Z,20.80
2019-03-31T16:58:12.788Z,20.80
2019-03-31T17:00:41.040Z,20.90
2019-03-31T17:03:09.248Z,20.80
2019-03-31T17:05:37.480Z,20.80
2019-03-31T17:08:06.041Z,20.60
2019-03-31T17:10:34.277Z,20.30
2019-03-31T17:13:02.497Z,20.10
2019-03-31T17:15:30.735Z,20.00
2019-03-31T17:17:58.972Z,19.90
2019-03-31T17:20:27.204Z,19.90
2019-03-31T17:22:55.448Z,19.70
2019-03-31T17:25:23.682Z,19.60
2019-03-31T17:27:52.545Z,19.50
2019-03-31T17:30:20.991Z,19.50
2019-03-31T17:32:49.501Z,19.50
2019-03-31T17:35:17.908Z,19.30
2019-03-31T17:37:47.371Z,19.30
2019-03-31T17:40:15.635Z,19.10
2019-03-31T17:42:44.915Z,19.10
2019-03-31T17:45:13.198Z,19.10
2019-03-31T17:47:50.240Z,19.10
2019-03-31T17:50:18.610Z,19.00
2019-03-31T17:52:46.887Z,18.90
2019-03-31T17:55:15.483Z,18.80
2019-03-31T17:57:43.772Z,18.70
2019-03-31T18:00:12.355Z,18.70
2019-03-31T18:02:46.173Z,18.80
2019-03-31T18:05:17.559Z,18.60
2019-03-31T18:07:50.060Z,18.60
2019-03-31T18:10:21.560Z,18.60
2019-03-31T18:12:52.607Z,18.50
2019-03-31T18:15:24.430Z,18.50
2019-03-31T18:17:52.728Z,18.50
2019-03-31T18:20:20.970Z,18.40
2019-03-31T18:22:59.973Z,18.50
2019-03-31T18:25:28.617Z,18.30
2019-03-31T18:27:56.853Z,18.30
2019-03-31T18:30:25.093Z,18.30
2019-03-31T18:32:55.285Z,18.40
2019-03-31T18:35:26.021Z,18.30
2019-03-31T18:37:54.453Z,18.30
2019-03-31T18:40:35.357Z,18.30
2019-03-31T18:43:01.558Z,18.20
2019-03-31T18:45:29.875Z,18.20
2019-03-31T18:48:00.970Z,18.10
2019-03-31T18:50:28.088Z,18.10
2019-03-31T18:53:00.114Z,18.10
2019-03-31T18:55:30.170Z,18.00
2019-03-31T18:58:11.852Z,17.90
2019-03-31T19:00:53.732Z,17.90
2019-03-31T19:03:38.600Z,17.90
2019-03-31T19:06:24.058Z,17.80
2019-03-31T19:09:02.921Z,17.70
2019-03-31T19:11:44.969Z,17.70
2019-03-31T19:14:15.027Z,17.70
2019-03-31T19:16:45.349Z,17.70
2019-03-31T19:19:24.448Z,17.70
2019-03-31T19:21:54.685Z,17.60
2019-03-31T19:24:41.191Z,17.60
2019-03-31T19:27:27.747Z,17.60
2019-03-31T19:30:09.908Z,17.60
2019-03-31T19:32:48.688Z,17.60
2019-03-31T19:35:33.395Z,17.50
2019-03-31T19:38:13.900Z,17.40
2019-03-31T19:41:02.957Z,17.50
2019-03-31T19:43:29.234Z,17.40
2019-03-31T19:46:14.144Z,17.40
2019-03-31T19:48:46.717Z,17.40
2019-03-31T19:51:19.572Z,17.40
2019-03-31T19:53:55.176Z,17.30
2019-03-31T19:56:43.461Z,17.20
2019-03-31T19:59:19.576Z,17.20
2019-03-31T20:01:55.492Z,17.00
2019-03-31T20:04:34.193Z,16.80
2019-03-31T20:07:16.173Z,16.90
2019-03-31T20:09:51.752Z,16.90
2019-03-31T20:12:21.625Z,16.80
2019-03-31T20:14:51.488Z,16.80
2019-03-31T20:17:24.274Z,16.60
2019-03-31T20:19:54.053Z,16.60
2019-03-31T20:22:26.514Z,16.50
2019-03-31T20:25:14.769Z,16.60
2019-03-31T20:27:47.528Z,16.60
2019-03-31T20:30:17.360Z,16.60
2019-03-31T20:32:56.465Z,16.50
2019-03-31T20:35:31.788Z,16.40
2019-03-31T20:38:16.670Z,16.40
2019-03-31T20:40:55.460Z,16.30
2019-03-31T20:43:28.036Z,16.30
2019-03-31T20:45:56.277Z,16.30
2019-03-31T20:48:24.523Z,16.40
2019-03-31T20:50:52.738Z,16.40
2019-03-31T20:53:20.972Z,16.40
2019-03-31T20:55:49.457Z,16.40
2019-03-31T20:58:17.773Z,16.40
2019-03-31T21:00:45.996Z,16.40
2019-03-31T21:03:14.232Z,16.40
2019-03-31T21:05:42.457Z,16.40
2019-03-31T21:08:10.704Z,16.30
2019-03-31T21:10:38.925Z,16.20
2019-03-31T21:13:07.164Z,16.10
2019-03-31T21:15:35.397Z,16.20
2019-03-31T21:18:03.709Z,16.20
2019-03-31T21:20:31.931Z,16.10
2019-03-31T21:23:00.163Z,16.10
2019-03-31T21:25:28.396Z,15.90
2019-03-31T21:27:56.630Z,15.90
2019-03-31T21:30:24.868Z,16.00
2019-03-31T21:32:53.093Z,16.00
2019-03-31T21:35:21.332Z,15.90
2019-03-31T21:37:49.563Z,15.80
2019-03-31T21:40:17.799Z,15.80
2019-03-31T21:42:46.024Z,15.70
2019-03-31T21:45:15.913Z,15.70
2019-03-31T21:47:44.142Z,15.70
2019-03-31T21:50:12.385Z,15.70
2019-03-31T21:52:40.604Z,15.60
2019-03-31T21:55:08.844Z,15.60
2019-03-31T21:57:37.076Z,15.50
2019-03-31T22:00:08.221Z,15.60
2019-03-31T22:02:35.753Z,15.60
2019-03-31T22:05:06.137Z,15.60
2019-03-31T22:07:34.362Z,15.60
2019-03-31T22:10:02.673Z,15.40
2019-03-31T22:12:30.900Z,15.40
2019-03-31T22:14:59.140Z,15.40
2019-03-31T22:17:27.420Z,15.30
2019-03-31T22:19:55.660Z,15.40
2019-03-31T22:22:23.888Z,15.20
2019-03-31T22:24:52.134Z,15.30
2019-03-31T22:27:20.361Z,15.20
2019-03-31T22:29:48.603Z,15.20
2019-03-31T22:32:17.157Z,15.10
2019-03-31T22:34:45.396Z,15.10
2019-03-31T22:37:13.912Z,15.10
2019-03-31T22:39:42.152Z,15.10
2019-03-31T22:42:10.380Z,15.10
2019-03-31T22:44:38.618Z,15.10
2019-03-31T22:47:06.844Z,14.90
2019-03-31T22:49:35.087Z,15.00
2019-03-31T22:52:03.313Z,15.00
2019-03-31T22:54:31.553Z,14.90
2019-03-31T22:56:59.780Z,14.90
2019-03-31T22:59:28.305Z,14.90
2019-03-31T23:01:56.781Z,14.80
2019-03-31T23:04:25.268Z,14.70
2019-03-31T23:06:53.493Z,14.80
2019-03-31T23:09:22.025Z,14.90
2019-03-31T23:11:50.254Z,14.90
2019-03-31T23:14:18.488Z,14.70
2019-03-31T23:16:46.719Z,14.70
2019-03-31T23:19:15.891Z,14.70
2019-03-31T23:21:44.118Z,14.50
2019-03-31T23:24:12.355Z,14.50
2019-03-31T23:26:40.581Z,14.60
2019-03-31T23:29:09.155Z,14.50
2019-03-31T23:31:37.381Z,14.50
2019-03-31T23:34:05.620Z,14.50
2019-03-31T23:36:33.853Z,14.50
2019-03-31T23:39:02.076Z,14.50
2019-03-31T23:41:30.317Z,14.50
2019-03-31T23:43:58.553Z,14.30
2019-03-31T23:46:26.796Z,14.30
2019-03-31T23:48:55.027Z,14.10
2019-03-31T23:51:23.260Z,14.20
2019-03-31T23:53:51.484Z,14.10
2019-03-31T23:56:19.728Z,14.20
2019-03-31T23:58:47.955Z,14.10
